createdAt,value
2022-12-01T00:00:26.629Z,0.67
2022-12-01T00:02:48.960Z,0.67
2022-12-01T00:05:11.370Z,0.67
2022-12-01T00:07:33.710Z,0.67
2022-12-01T00:10:14.587Z,0.72
2022-12-01T00:12:43.487Z,0.73
2022-12-01T00:15:06.280Z,0.77
2022-12-01T00:17:30.209Z,0.72
2022-12-01T00:19:52.490Z,0.77
2022-12-01T00:22:14.850Z,0.73
2022-12-01T00:24:37.121Z,0.71
2022-12-01T00:26:59.444Z,0.74
2022-12-01T00:29:21.731Z,0.73
2022-12-01T00:31:44.082Z,0.78
2022-12-01T00:34:11.028Z,0.77
2022-12-01T00:36:33.877Z,0.81
2022-12-01T00:38:56.395Z,0.81
2022-12-01T00:41:18.792Z,0.79
2022-12-01T00:43:41.142Z,0.83
2022-12-01T00:46:03.809Z,0.84
2022-12-01T00:48:26.223Z,0.82
2022-12-01T00:50:50.117Z,0.89
2022-12-01T00:53:12.430Z,0.90
2022-12-01T00:55:34.740Z,0.88
2022-12-01T00:57:57.043Z,0.86
2022-12-01T01:00:19.622Z,0.86
2022-12-01T01:02:42.010Z,0.86
2022-12-01T01:05:04.507Z,0.88
2022-12-01T01:07:26.892Z,0.85
2022-12-01T01:09:49.425Z,0.88
2022-12-01T01:12:11.865Z,0.90
2022-12-01T01:14:34.237Z,0.89
2022-12-01T01:16:56.622Z,0.86
2022-12-01T01:19:18.975Z,0.82
2022-12-01T01:21:41.353Z,0.83
2022-12-01T01:24:03.870Z,0.80
2022-12-01T01:26:29.531Z,0.80
2022-12-01T01:28:52.096Z,0.77
2022-12-01T01:31:17.967Z,0.80
2022-12-01T01:33:40.375Z,0.83
2022-12-01T01:36:02.873Z,0.80
2022-12-01T01:38:25.208Z,0.79
2022-12-01T01:40:47.528Z,0.81
2022-12-01T01:43:17.672Z,0.84
2022-12-01T01:45:39.994Z,0.86
2022-12-01T01:48:03.775Z,0.80
2022-12-01T01:50:27.298Z,0.82
2022-12-01T01:53:03.439Z,0.83
2022-12-01T01:55:25.746Z,0.89
2022-12-01T01:57:48.076Z,0.92
2022-12-01T02:00:16.402Z,0.93
2022-12-01T02:02:43.558Z,0.95
2022-12-01T02:05:11.097Z,0.97
2022-12-01T02:07:33.575Z,1.01
2022-12-01T02:09:56.210Z,1.05
2022-12-01T02:12:24.066Z,1.04
2022-12-01T02:15:14.208Z,1.07
2022-12-01T02:18:02.408Z,1.08
2022-12-01T02:20:38.985Z,1.04
2022-12-01T02:23:44.492Z,1.07
2022-12-01T02:26:50.190Z,1.06
2022-12-01T02:29:38.406Z,1.07
2022-12-01T02:32:02.037Z,1.08
2022-12-01T02:34:54.318Z,1.10
2022-12-01T02:37:47.700Z,1.05
2022-12-01T02:40:30.507Z,1.07
2022-12-01T02:43:30.332Z,1.06
2022-12-01T02:46:00.525Z,1.06
2022-12-01T02:48:34.299Z,1.02
2022-12-01T02:50:58.910Z,1.03
2022-12-01T02:53:21.604Z,1.08
2022-12-01T02:55:52.852Z,1.06
2022-12-01T02:58:15.344Z,1.11
2022-12-01T03:00:37.617Z,1.08
2022-12-01T03:03:11.933Z,1.07
2022-12-01T03:05:52.068Z,1.11
2022-12-01T03:08:35.590Z,1.07
2022-12-01T03:10:58.292Z,1.10
2022-12-01T03:13:51.515Z,1.04
2022-12-01T03:16:40.424Z,1.04
2022-12-01T03:19:32.722Z,1.01
2022-12-01T03:22:01.938Z,1.05
2022-12-01T03:24:25.700Z,1.01
2022-12-01T03:26:51.897Z,1.01
2022-12-01T03:29:18.039Z,0.98
2022-12-01T03:31:45.809Z,0.98
2022-12-01T03:34:14.261Z,1.01
2022-12-01T03:36:41.119Z,1.01
2022-12-01T03:39:07.091Z,1.01
2022-12-01T03:41:35.491Z,0.97
2022-12-01T03:44:08.942Z,0.94
2022-12-01T03:46:56.891Z,0.99
2022-12-01T03:49:19.212Z,0.96
2022-12-01T03:51:50.624Z,0.98
2022-12-01T03:54:21.554Z,0.99
2022-12-01T03:56:51.205Z,0.98
2022-12-01T03:59:13.473Z,1.02
2022-12-01T04:01:35.893Z,0.97
2022-12-01T04:04:08.016Z,0.98
2022-12-01T04:06:30.300Z,1.03
2022-12-01T04:08:52.592Z,1.04
2022-12-01T04:11:35.123Z,1.05
2022-12-01T04:13:57.416Z,1.03
2022-12-01T04:16:19.787Z,1.02
2022-12-01T04:18:42.097Z,1.02
2022-12-01T04:21:04.580Z,1.05
2022-12-01T04:23:45.658Z,1.01
2022-12-01T04:26:12.641Z,1.02
2022-12-01T04:28:37.944Z,1.05
2022-12-01T04:31:00.333Z,1.05
2022-12-01T04:33:22.685Z,1.10
2022-12-01T04:35:44.956Z,1.12
2022-12-01T04:38:07.264Z,1.13
2022-12-01T04:40:29.543Z,1.18
2022-12-01T04:42:51.819Z,1.19
2022-12-01T04:45:14.142Z,1.18
2022-12-01T04:47:36.446Z,1.15
2022-12-01T04:49:58.816Z,1.14
2022-12-01T04:52:21.107Z,1.20
2022-12-01T04:54:43.396Z,1.20
2022-12-01T04:57:05.782Z,1.18
2022-12-01T04:59:28.058Z,1.20
2022-12-01T05:01:50.528Z,1.21
2022-12-01T05:04:13.565Z,1.23
2022-12-01T05:06:35.945Z,1.24
2022-12-01T05:08:59.972Z,1.26
2022-12-01T05:11:23.812Z,1.23
2022-12-01T05:13:47.297Z,1.24
2022-12-01T05:16:24.217Z,1.24
2022-12-01T05:18:50.886Z,1.25
2022-12-01T05:21:13.190Z,1.26
2022-12-01T05:23:37.039Z,1.25
2022-12-01T05:25:59.463Z,1.26
2022-12-01T05:28:23.229Z,1.30
2022-12-01T05:30:45.554Z,1.31
2022-12-01T05:33:07.920Z,1.32
2022-12-01T05:35:30.267Z,1.31
2022-12-01T05:37:52.585Z,1.32
2022-12-01T05:40:14.932Z,1.37
2022-12-01T05:42:37.242Z,1.36
2022-12-01T05:44:59.516Z,1.40
2022-12-01T05:47:21.802Z,1.39
2022-12-01T05:49:44.094Z,1.38
2022-12-01T05:52:06.402Z,1.37
2022-12-01T05:54:30.486Z,1.37
2022-12-01T05:56:52.811Z,1.39
2022-12-01T05:59:15.116Z,1.43
2022-12-01T06:01:37.431Z,1.42
2022-12-01T06:03:59.817Z,1.42
2022-12-01T06:06:22.447Z,1.41
2022-12-01T06:08:44.721Z,1.42
2022-12-01T06:11:07.046Z,1.36
2022-12-01T06:13:29.338Z,1.36
2022-12-01T06:16:03.244Z,1.40
2022-12-01T06:18:26.835Z,1.33
2022-12-01T06:20:49.124Z,1.37
2022-12-01T06:23:11.417Z,1.41
2022-12-01T06:25:33.803Z,1.42
2022-12-01T06:27:59.824Z,1.40
2022-12-01T06:30:22.129Z,1.41
2022-12-01T06:32:44.436Z,1.38
2022-12-01T06:35:07.320Z,1.43
2022-12-01T06:37:29.605Z,1.44
2022-12-01T06:39:52.647Z,1.42
2022-12-01T06:42:15.383Z,1.43
2022-12-01T06:44:38.081Z,1.42
2022-12-01T06:47:00.396Z,1.43
2022-12-01T06:49:22.692Z,1.46
2022-12-01T06:51:45.263Z,1.44
2022-12-01T06:54:07.822Z,1.44
2022-12-01T06:56:30.170Z,1.43
2022-12-01T06:58:53.044Z,1.45
2022-12-01T07:01:16.059Z,1.42
2022-12-01T07:03:39.161Z,1.44
2022-12-01T07:06:01.851Z,1.46
2022-12-01T07:08:24.808Z,1.46
2022-12-01T07:10:50.343Z,1.48
2022-12-01T07:13:12.635Z,1.50
2022-12-01T07:15:34.921Z,1.56
2022-12-01T07:17:57.295Z,1.52
2022-12-01T07:20:19.580Z,1.54
2022-12-01T07:22:43.111Z,1.53
2022-12-01T07:25:06.756Z,1.50
2022-12-01T07:27:32.307Z,1.53
2022-12-01T07:29:54.576Z,1.54
2022-12-01T07:32:16.943Z,1.55
2022-12-01T07:34:39.283Z,1.53
2022-12-01T07:37:01.601Z,1.57
2022-12-01T07:39:23.885Z,1.63
2022-12-01T07:41:46.182Z,1.63
2022-12-01T07:44:10.870Z,1.56
2022-12-01T07:46:26.307Z,1.59
2022-12-01T07:48:30.243Z,1.62
2022-12-01T07:50:32.178Z,1.63
2022-12-01T07:52:34.634Z,1.65
2022-12-01T07:54:36.592Z,1.70
2022-12-01T07:56:38.584Z,1.70
2022-12-01T07:58:40.576Z,1.71
2022-12-01T08:00:42.640Z,1.71
2022-12-01T08:03:03.392Z,1.72
2022-12-01T08:05:24.115Z,1.68
2022-12-01T08:07:46.467Z,1.71
2022-12-01T08:10:09.073Z,1.70
2022-12-01T08:12:31.398Z,1.69
2022-12-01T08:14:53.771Z,1.72
2022-12-01T08:17:16.099Z,1.70
2022-12-01T08:19:38.423Z,1.71
2022-12-01T08:22:00.702Z,1.74
2022-12-01T08:24:23.151Z,1.71
2022-12-01T08:26:45.476Z,1.76
2022-12-01T08:29:07.785Z,1.78
2022-12-01T08:31:33.160Z,1.79
2022-12-01T08:33:55.723Z,1.79
2022-12-01T08:36:18.321Z,1.83
2022-12-01T08:38:43.184Z,1.81
2022-12-01T08:41:07.799Z,1.88
2022-12-01T08:43:55.786Z,1.89
2022-12-01T08:46:12.991Z,1.96
2022-12-01T08:48:35.748Z,1.91
2022-12-01T08:51:15.753Z,1.97
2022-12-01T08:53:45.333Z,1.94
2022-12-01T08:56:17.919Z,1.98
2022-12-01T08:58:40.234Z,1.99
2022-12-01T09:01:10.498Z,1.97
2022-12-01T09:03:33.842Z,1.96
2022-12-01T09:06:05.199Z,2.00
2022-12-01T09:08:34.164Z,2.03
2022-12-01T09:10:56.449Z,2.01
2022-12-01T09:13:18.793Z,2.03
2022-12-01T09:15:41.092Z,2.03
2022-12-01T09:18:03.379Z,1.99
2022-12-01T09:20:25.702Z,2.06
2022-12-01T09:22:48.002Z,2.02
2022-12-01T09:25:14.776Z,2.06
2022-12-01T09:27:37.076Z,2.08
2022-12-01T09:29:59.378Z,2.10
2022-12-01T09:32:21.632Z,2.11
2022-12-01T09:34:43.922Z,2.12
2022-12-01T09:37:06.973Z,2.11
2022-12-01T09:39:29.795Z,2.13
2022-12-01T09:42:10.784Z,2.13
2022-12-01T09:44:41.809Z,2.11
2022-12-01T09:47:11.640Z,2.11
2022-12-01T09:50:00.945Z,2.14
2022-12-01T09:52:25.264Z,2.15
2022-12-01T09:54:47.794Z,2.13
2022-12-01T09:57:35.381Z,2.19
2022-12-01T09:59:41.775Z,2.17
2022-12-01T10:01:46.736Z,2.16
2022-12-01T10:03:56.169Z,2.12
2022-12-01T10:06:27.430Z,2.11
2022-12-01T10:08:36.202Z,2.08
2022-12-01T10:10:49.331Z,2.09
2022-12-01T10:12:52.231Z,2.06
2022-12-01T10:15:22.279Z,2.09
2022-12-01T10:17:57.220Z,2.05
2022-12-01T10:20:40.355Z,2.11
2022-12-01T10:22:49.558Z,2.12
2022-12-01T10:25:22.811Z,2.09
2022-12-01T10:27:38.819Z,2.11
2022-12-01T10:30:24.768Z,2.15
2022-12-01T10:32:38.791Z,2.11
2022-12-01T10:34:41.909Z,2.09
2022-12-01T10:36:44.771Z,2.12
2022-12-01T10:38:46.897Z,2.15
2022-12-01T10:40:50.879Z,2.17
2022-12-01T10:42:53.217Z,2.13
2022-12-01T10:45:00.863Z,2.11
2022-12-01T10:47:03.478Z,2.13
2022-12-01T10:49:11.963Z,2.18
2022-12-01T10:51:17.103Z,2.23
2022-12-01T10:53:23.679Z,2.26
2022-12-01T10:55:30.685Z,2.22
2022-12-01T10:57:33.680Z,2.17
2022-12-01T11:00:03.094Z,2.15
2022-12-01T11:02:14.297Z,2.19
2022-12-01T11:04:45.187Z,2.17
2022-12-01T11:06:51.125Z,2.18
2022-12-01T11:09:02.722Z,2.19
2022-12-01T11:11:06.298Z,2.20
2022-12-01T11:13:22.870Z,2.23
2022-12-01T11:15:32.468Z,2.25
2022-12-01T11:17:44.703Z,2.23
2022-12-01T11:19:47.587Z,2.20
2022-12-01T11:21:53.401Z,2.25
2022-12-01T11:23:56.708Z,2.26
2022-12-01T11:26:05.380Z,2.29
2022-12-01T11:28:09.181Z,2.32
2022-12-01T11:30:26.459Z,2.24
2022-12-01T11:32:35.434Z,2.13
2022-12-01T11:34:38.417Z,2.21
2022-12-01T11:36:47.291Z,2.21
2022-12-01T11:38:50.693Z,2.23
2022-12-01T11:40:55.162Z,2.21
2022-12-01T11:43:01.096Z,2.20
2022-12-01T11:45:21.683Z,2.21
2022-12-01T11:47:26.181Z,2.20
2022-12-01T11:49:30.152Z,2.20
2022-12-01T11:51:37.695Z,2.23
2022-12-01T11:53:44.058Z,2.24
2022-12-01T11:55:48.784Z,2.30
2022-12-01T11:57:54.957Z,2.32
2022-12-01T11:59:57.795Z,2.27
2022-12-01T12:02:30.782Z,2.23
2022-12-01T12:05:01.513Z,2.22
2022-12-01T12:07:43.173Z,2.25
2022-12-01T12:10:08.392Z,2.31
2022-12-01T12:12:21.114Z,2.35
2022-12-01T12:14:38.124Z,2.34
2022-12-01T12:17:16.249Z,2.28
2022-12-01T12:20:06.281Z,2.19
2022-12-01T12:22:26.590Z,2.27
2022-12-01T12:24:59.672Z,2.23
2022-12-01T12:27:58.005Z,2.29
2022-12-01T12:30:18.927Z,2.30
2022-12-01T12:32:57.686Z,2.30
2022-12-01T12:35:06.232Z,2.33
2022-12-01T12:37:48.262Z,2.32
2022-12-01T12:40:25.720Z,2.27
2022-12-01T12:42:50.457Z,2.31
2022-12-01T12:45:20.116Z,2.30
2022-12-01T12:48:07.956Z,2.32
2022-12-01T12:50:50.730Z,2.29
2022-12-01T12:53:01.597Z,2.34
2022-12-01T12:55:26.599Z,2.33
2022-12-01T12:57:35.667Z,2.33
2022-12-01T12:59:42.900Z,2.34
2022-12-01T13:02:06.591Z,2.36
2022-12-01T13:04:58.589Z,2.30
2022-12-01T13:07:08.536Z,2.26
2022-12-01T13:09:27.154Z,2.26
2022-12-01T13:12:15.929Z,2.29
2022-12-01T13:14:36.766Z,2.24
2022-12-01T13:16:43.082Z,2.28
2022-12-01T13:18:51.788Z,2.29
2022-12-01T13:20:55.781Z,2.30
2022-12-01T13:22:59.391Z,2.33
2022-12-01T13:25:02.544Z,2.29
2022-12-01T13:27:19.733Z,2.29
2022-12-01T13:29:24.049Z,2.32
2022-12-01T13:31:26.409Z,2.29
2022-12-01T13:33:28.742Z,2.27
2022-12-01T13:35:36.882Z,2.27
2022-12-01T13:37:39.172Z,2.26
2022-12-01T13:39:41.584Z,2.21
2022-12-01T13:41:44.597Z,2.22
2022-12-01T13:44:22.638Z,2.21
2022-12-01T13:46:42.475Z,2.23
2022-12-01T13:48:47.704Z,2.24
2022-12-01T13:50:59.168Z,2.28
2022-12-01T13:53:19.783Z,2.29
2022-12-01T13:55:28.032Z,2.30
2022-12-01T13:57:49.372Z,2.37
2022-12-01T14:00:00.536Z,2.32
2022-12-01T14:02:20.749Z,2.32
2022-12-01T14:04:26.159Z,2.31
2022-12-01T14:06:31.236Z,2.31
2022-12-01T14:08:56.243Z,2.30
2022-12-01T14:11:25.867Z,2.32
2022-12-01T14:14:00.260Z,2.27
2022-12-01T14:16:22.791Z,2.28
2022-12-01T14:18:57.602Z,2.29
2022-12-01T14:21:44.876Z,2.25
2022-12-01T14:24:07.450Z,2.27
2022-12-01T14:26:30.348Z,2.26
2022-12-01T14:28:55.772Z,2.26
2022-12-01T14:31:18.176Z,2.25
2022-12-01T14:33:48.958Z,2.31
2022-12-01T14:36:17.160Z,2.33
2022-12-01T14:38:39.453Z,2.34
2022-12-01T14:41:26.268Z,2.36
2022-12-01T14:44:04.837Z,2.36
2022-12-01T14:46:27.327Z,2.35
2022-12-01T14:48:49.675Z,2.40
2022-12-01T14:51:27.633Z,2.40
2022-12-01T14:53:50.256Z,2.40
2022-12-01T14:56:16.676Z,2.33
2022-12-01T14:58:39.013Z,2.28
2022-12-01T15:01:08.474Z,2.31
2022-12-01T15:03:43.019Z,2.33
2022-12-01T15:06:05.682Z,2.27
2022-12-01T15:09:04.146Z,2.29
2022-12-01T15:11:25.590Z,2.31
2022-12-01T15:13:51.032Z,2.27
2022-12-01T15:16:19.329Z,2.28
2022-12-01T15:18:41.690Z,2.32
2022-12-01T15:21:16.427Z,2.33
2022-12-01T15:24:03.397Z,2.33
2022-12-01T15:26:34.774Z,2.36
2022-12-01T15:29:13.188Z,2.36
2022-12-01T15:31:35.525Z,2.31
2022-12-01T15:33:57.885Z,2.26
2022-12-01T15:36:20.203Z,2.31
2022-12-01T15:38:42.932Z,2.29
2022-12-01T15:43:59.198Z,2.33
2022-12-01T15:46:30.835Z,2.34
2022-12-01T15:49:18.999Z,2.36
2022-12-01T15:51:41.283Z,2.38
2022-12-01T15:54:03.656Z,2.36
2022-12-01T15:56:36.206Z,2.35
2022-12-01T15:59:29.025Z,2.39
2022-12-01T16:01:51.334Z,2.39
2022-12-01T16:04:28.281Z,2.39
2022-12-01T16:07:09.809Z,2.39
2022-12-01T16:09:54.926Z,2.39
2022-12-01T16:12:17.699Z,2.40
2022-12-01T16:15:13.803Z,2.40
2022-12-01T16:17:49.505Z,2.40
2022-12-01T16:20:22.051Z,2.36
2022-12-01T16:22:51.155Z,2.37
2022-12-01T16:25:34.651Z,2.37
2022-12-01T16:27:56.973Z,2.33
2022-12-01T16:30:21.977Z,2.32
2022-12-01T16:32:44.394Z,2.30
2022-12-01T16:35:24.411Z,2.33
2022-12-01T16:37:46.734Z,2.33
2022-12-01T16:40:11.527Z,2.34
2022-12-01T16:42:33.809Z,2.36
2022-12-01T16:44:56.126Z,2.37
2022-12-01T16:47:23.931Z,2.38
2022-12-01T16:49:46.467Z,2.33
2022-12-01T16:52:36.466Z,2.31
2022-12-01T16:54:51.362Z,2.27
2022-12-01T16:57:13.986Z,2.27
2022-12-01T16:59:36.361Z,2.25
2022-12-01T17:01:59.395Z,2.25
2022-12-01T17:04:21.689Z,2.23
2022-12-01T17:06:44.015Z,2.25
2022-12-01T17:09:06.448Z,2.26
2022-12-01T17:11:28.772Z,2.27
2022-12-01T17:13:51.136Z,2.26
2022-12-01T17:16:18.142Z,2.24
2022-12-01T17:18:41.230Z,2.25
2022-12-01T17:21:09.559Z,2.27
2022-12-01T17:23:33.057Z,2.29
2022-12-01T17:25:55.369Z,2.30
2022-12-01T17:28:17.929Z,2.35
2022-12-01T17:30:40.334Z,2.29
2022-12-01T17:33:02.684Z,2.24
2022-12-01T17:35:24.970Z,2.28
2022-12-01T17:37:47.307Z,2.28
2022-12-01T17:40:13.896Z,2.28
2022-12-01T17:42:36.209Z,2.28
2022-12-01T17:44:58.870Z,2.29
2022-12-01T17:47:21.193Z,2.31
2022-12-01T17:49:43.580Z,2.25
2022-12-01T17:52:06.795Z,2.22
2022-12-01T17:54:29.032Z,2.17
2022-12-01T17:56:51.424Z,2.19
2022-12-01T17:59:13.978Z,2.24
2022-12-01T18:01:36.405Z,2.25
2022-12-01T18:03:59.115Z,2.25
2022-12-01T18:06:21.486Z,2.25
2022-12-01T18:08:43.876Z,2.28
2022-12-01T18:11:08.017Z,2.26
2022-12-01T18:13:30.353Z,2.24
2022-12-01T18:15:52.748Z,2.23
2022-12-01T18:18:15.067Z,2.24
2022-12-01T18:20:41.694Z,2.24
2022-12-01T18:23:03.978Z,2.22
2022-12-01T18:25:26.280Z,2.23
2022-12-01T18:27:48.591Z,2.18
2022-12-01T18:30:11.730Z,2.20
2022-12-01T18:32:34.033Z,2.20
2022-12-01T18:34:56.337Z,2.24
2022-12-01T18:37:18.646Z,2.24
2022-12-01T18:39:40.969Z,2.22
2022-12-01T18:42:03.285Z,2.23
2022-12-01T18:44:25.586Z,2.19
2022-12-01T18:46:47.961Z,2.23
2022-12-01T18:49:10.320Z,2.22
2022-12-01T18:51:37.078Z,2.24
2022-12-01T18:54:00.409Z,2.20
2022-12-01T18:56:22.739Z,2.24
2022-12-01T18:58:45.109Z,2.22
2022-12-01T19:01:25.932Z,2.21
2022-12-01T19:03:48.285Z,2.19
2022-12-01T19:06:12.638Z,2.22
2022-12-01T19:08:34.955Z,2.22
2022-12-01T19:11:01.470Z,2.13
2022-12-01T19:13:23.769Z,2.17
2022-12-01T19:15:46.103Z,2.09
2022-12-01T19:18:08.459Z,2.06
2022-12-01T19:20:30.809Z,2.11
2022-12-01T19:22:53.159Z,2.02
2022-12-01T19:25:15.601Z,2.03
2022-12-01T19:27:38.219Z,2.06
2022-12-01T19:30:00.511Z,2.07
2022-12-01T19:32:23.037Z,2.05
2022-12-01T19:34:45.597Z,1.97
2022-12-01T19:37:11.075Z,2.02
2022-12-01T19:39:33.385Z,2.03
2022-12-01T19:41:57.361Z,2.01
2022-12-01T19:44:19.675Z,2.02
2022-12-01T19:46:42.048Z,2.02
2022-12-01T19:49:05.016Z,2.00
2022-12-01T19:51:38.291Z,2.04
2022-12-01T19:54:00.700Z,2.02
2022-12-01T19:56:23.213Z,2.03
2022-12-01T19:58:45.622Z,2.00
2022-12-01T20:01:13.144Z,1.96
2022-12-01T20:03:35.857Z,1.92
2022-12-01T20:06:06.902Z,1.99
2022-12-01T20:08:29.188Z,1.95
2022-12-01T20:10:51.741Z,2.00
2022-12-01T20:13:14.082Z,1.98
2022-12-01T20:15:36.447Z,1.99
2022-12-01T20:17:58.736Z,1.99
2022-12-01T20:20:21.086Z,1.99
2022-12-01T20:22:43.358Z,1.97
2022-12-01T20:25:06.550Z,1.92
2022-12-01T20:27:29.199Z,1.94
2022-12-01T20:29:51.520Z,1.96
2022-12-01T20:32:13.950Z,1.99
2022-12-01T20:34:36.592Z,1.92
2022-12-01T20:36:59.218Z,1.96
2022-12-01T20:39:21.728Z,1.96
2022-12-01T20:41:44.595Z,1.94
2022-12-01T20:44:07.877Z,1.96
2022-12-01T20:46:30.467Z,1.94
2022-12-01T20:48:52.821Z,1.97
2022-12-01T20:51:15.274Z,1.98
2022-12-01T20:53:37.574Z,1.99
2022-12-01T20:56:05.407Z,1.96
2022-12-01T20:58:27.748Z,1.98
2022-12-01T21:00:50.158Z,2.01
2022-12-01T21:03:12.957Z,1.99
2022-12-01T21:05:37.940Z,1.99
2022-12-01T21:08:01.263Z,1.92
2022-12-01T21:10:23.656Z,1.96
2022-12-01T21:13:08.129Z,1.94
2022-12-01T21:15:31.444Z,1.91
2022-12-01T21:17:59.617Z,1.93
2022-12-01T21:20:31.030Z,1.92
2022-12-01T21:22:53.752Z,1.88
2022-12-01T21:25:22.340Z,1.93
2022-12-01T21:27:45.831Z,1.93
2022-12-01T21:30:26.386Z,1.89
2022-12-01T21:32:49.334Z,1.91
2022-12-01T21:35:25.061Z,1.88
2022-12-01T21:37:48.155Z,1.87
2022-12-01T21:40:36.778Z,1.84
2022-12-01T21:43:05.472Z,1.79
2022-12-01T21:45:30.373Z,1.84
2022-12-01T21:47:53.218Z,1.82
2022-12-01T21:50:21.104Z,1.78
2022-12-01T21:52:43.423Z,1.79
2022-12-01T21:55:14.459Z,1.81
2022-12-01T21:57:42.793Z,1.79
2022-12-01T22:00:26.679Z,1.84
2022-12-01T22:02:51.460Z,1.83
2022-12-01T22:05:42.901Z,1.86
2022-12-01T22:08:14.121Z,1.84
2022-12-01T22:11:11.673Z,1.81
2022-12-01T22:13:48.804Z,1.82
2022-12-01T22:16:30.006Z,1.80
2022-12-01T22:18:57.750Z,1.79
2022-12-01T22:21:23.144Z,1.79
2022-12-01T22:23:45.368Z,1.82
2022-12-01T22:26:21.179Z,1.79
2022-12-01T22:28:43.466Z,1.78
2022-12-01T22:31:15.763Z,1.77
2022-12-01T22:33:38.202Z,1.78
2022-12-01T22:36:00.525Z,1.77
2022-12-01T22:38:36.705Z,1.72
2022-12-01T22:41:05.689Z,1.74
2022-12-01T22:43:42.036Z,1.68
2022-12-01T22:46:27.537Z,1.71
2022-12-01T22:49:03.405Z,1.66
2022-12-01T22:51:38.500Z,1.56
2022-12-01T22:54:49.240Z,1.63
2022-12-01T22:57:33.028Z,1.64
2022-12-01T22:59:55.411Z,1.65
2022-12-01T23:02:27.401Z,1.58
2022-12-01T23:04:56.951Z,1.60
2022-12-01T23:07:36.768Z,1.53
2022-12-01T23:10:11.123Z,1.53
2022-12-01T23:12:34.516Z,1.54
2022-12-01T23:15:00.743Z,1.49
2022-12-01T23:17:31.007Z,1.48
2022-12-01T23:20:14.331Z,1.40
2022-12-01T23:22:37.950Z,1.38
2022-12-01T23:25:01.184Z,1.29
2022-12-01T23:27:23.427Z,1.28
2022-12-01T23:29:45.740Z,1.20
2022-12-01T23:32:08.047Z,1.29
2022-12-01T23:34:30.379Z,1.34
2022-12-01T23:36:52.699Z,1.34
2022-12-01T23:39:16.222Z,1.31
2022-12-01T23:41:46.515Z,1.28
2022-12-01T23:44:39.008Z,1.26
2022-12-01T23:47:01.344Z,1.31
2022-12-01T23:49:27.800Z,1.24
2022-12-01T23:51:55.047Z,1.22
2022-12-01T23:54:33.470Z,1.24
2022-12-01T23:57:01.633Z,1.17
2022-12-01T23:59:24.001Z,1.21
